aviador You're here:

EPKK Decoded Metar

KRAKOW in POLAND
Report Time2018-07-20 20:00:00
UTC Time2018-07-20 20:11:42
Flight Rules vfr VFR
WindVRB at 01 kt
Visibility9999 m
Phenomena:N/A
Clouds:Few 060 Hf
Expected CloudBase > 1,200 ft AGL from Temp-Dew spread
CeilingNone
Temp19°C (ISA +6)
Dew Point16°C (83% RH)
QNH1013 hPa
Density Alt1,673 ft
Elevation778 ft
Report Wrong Elevation
Raw Report
METAR EPKK 202000Z VRB01KT 9999 FEW060 19/16 Q1013 =

Extra information for EPKK:More info

Metar Taf Metar & Taf Last 4 Metars F.Rules Stats Wind Profile Meteogram Temp Stats Airport Information Weather charts Add Link Nearby VenuesMetar ALERT Operation Metar Decoded Social comments